Time;durP1;ratioP1;P1;durP2;ratioP2;P2;SDS_P1;SDS_P2;PMS_P1;PMS_P2;Temp;Humidity;BMP_temperature;BMP_pressure;BME280_temperature;BME280_humidity;BME280_pressure;Samples;Min_cycle;Max_cycle;Signal;HPM_P1;HPM_P2
2021/04/09 00:00:54;;;;;;;2.67;2.47;;;;;;;6.38;54.11;101402.88;4969369;28;20035;-80
2021/04/09 00:04:01;;;;;;;3.80;2.50;;;;;;;6.61;52.71;101421.25;4972812;29;20052;-81
2021/04/09 00:06:26;;;;;;;5.00;2.35;;;;;;;6.41;53.71;101413.31;4970434;29;20352;-81
2021/04/09 00:08:55;;;;;;;3.30;2.35;;;;;;;6.35;53.58;101420.06;4970619;29;20038;-81
2021/04/09 00:11:43;;;;;;;3.67;2.10;;;;;;;6.25;54.43;101410.84;4971410;29;20027;-80
2021/04/09 00:14:13;;;;;;;3.13;2.33;;;;;;;6.04;54.29;101370.88;4972626;28;20031;-80
2021/04/09 00:16:39;;;;;;;3.55;2.30;;;;;;;6.24;53.45;101413.91;4971490;28;20034;-81
2021/04/09 00:22:31;;;;;;;3.45;2.50;;;;;;;6.30;53.74;101407.16;4984273;28;20063;-80
2021/04/09 00:24:56;;;;;;;2.88;2.35;;;;;;;6.27;53.28;101399.47;4976760;28;20061;-80
2021/04/09 00:30:50;;;;;;;6.43;4.82;;;;;;;6.15;53.90;101411.00;4988913;28;20054;-81
2021/04/09 00:33:15;;;;;;;6.95;5.18;;;;;;;6.16;54.44;101403.53;4989693;28;20102;-80
2021/04/09 00:39:08;;;;;;;8.82;5.70;;;;;;;6.16;53.78;101401.59;4989082;28;20042;-80
2021/04/09 00:41:37;;;;;;;7.50;5.97;;;;;;;6.04;54.29;101409.56;4972950;28;20027;-81
2021/04/09 00:47:47;;;;;;;8.90;6.50;;;;;;;5.88;54.59;101397.09;4987683;28;20043;-80
2021/04/09 00:50:16;;;;;;;7.22;4.65;;;;;;;5.95;54.66;101400.31;4972201;28;20030;-81
2021/04/09 00:52:43;;;;;;;4.05;3.58;;;;;;;5.97;54.50;101411.91;4988899;28;20027;-80
2021/04/09 00:55:47;;;;;;;4.13;3.10;;;;;;;5.99;54.32;101402.16;4972458;28;20027;-80
2021/04/09 00:58:14;;;;;;;6.50;2.60;;;;;;;5.92;54.26;101400.94;4989313;28;20033;-80
2021/04/09 01:00:39;;;;;;;2.70;2.47;;;;;;;5.83;54.30;101409.03;4972276;28;20188;-81
2021/04/09 01:06:43;;;;;;;2.58;2.20;;;;;;;5.88;54.81;101403.44;4986218;28;20046;-80
2021/04/09 01:09:09;;;;;;;1.95;1.75;;;;;;;5.72;55.04;101369.72;4971017;28;20027;-81
2021/04/09 01:11:34;;;;;;;2.53;2.33;;;;;;;5.78;54.87;101396.13;4971668;28;20496;-81
2021/04/09 01:18:03;;;;;;;3.88;2.42;;;;;;;5.94;53.76;101393.16;4986988;28;20074;-80
2021/04/09 01:20:58;;;;;;;3.03;2.35;;;;;;;5.93;53.71;101363.88;4972570;28;20065;-80
2021/04/09 01:24:02;;;;;;;2.08;1.88;;;;;;;6.11;54.31;101395.34;4971762;28;20054;-80
2021/04/09 01:26:55;;;;;;;2.72;1.95;;;;;;;5.93;54.37;101391.50;4972490;28;20045;-81
2021/04/09 01:33:42;;;;;;;2.20;2.00;;;;;;;6.14;53.58;101387.28;4986007;28;20042;-80
2021/04/09 01:36:20;;;;;;;1.95;1.80;;;;;;;6.12;54.39;101402.50;4986444;28;20070;-80
2021/04/09 01:42:35;;;;;;;1.92;1.83;;;;;;;5.97;53.53;101400.84;4987782;28;20058;-80
2021/04/09 01:45:03;;;;;;;1.75;1.63;;;;;;;5.86;54.39;101399.31;4971454;28;20122;-81
2021/04/09 01:47:31;;;;;;;1.70;1.60;;;;;;;5.80;54.93;101404.09;4974075;28;20046;-81
2021/04/09 01:50:30;;;;;;;2.13;1.60;;;;;;;5.74;54.82;101395.09;4989294;28;20030;-81
2021/04/09 01:52:57;;;;;;;3.33;2.00;;;;;;;5.75;54.76;101404.19;4974023;28;20098;-81
2021/04/09 01:55:23;;;;;;;2.58;1.70;;;;;;;5.71;54.75;101387.41;4971637;28;20060;-80
2021/04/09 01:58:14;;;;;;;1.52;1.42;;;;;;;6.02;53.74;101395.22;4989966;28;20034;-80
2021/04/09 02:00:40;;;;;;;1.73;1.63;;;;;;;5.84;54.13;101387.75;4988654;28;20044;-80
2021/04/09 02:03:07;;;;;;;1.55;1.40;;;;;;;5.72;53.96;101391.81;4988740;28;20070;-80
2021/04/09 02:09:40;;;;;;;3.72;1.48;;;;;;;5.76;53.88;101392.84;4987132;28;20117;-80
2021/04/09 02:12:06;;;;;;;2.58;1.60;;;;;;;5.72;53.59;101391.00;4990139;28;20106;-81
2021/04/09 02:14:35;;;;;;;2.40;1.83;;;;;;;5.61;53.52;101390.34;4987865;28;20030;-80
2021/04/09 02:17:01;;;;;;;2.38;1.65;;;;;;;5.68;54.09;101378.91;4971749;28;20050;-80
2021/04/09 02:19:29;;;;;;;1.70;1.60;;;;;;;5.74;53.24;101394.28;4971980;28;20031;-80
2021/04/09 02:22:07;;;;;;;3.45;2.13;;;;;;;5.60;53.91;101390.66;4972043;28;20023;-80
2021/04/09 02:24:33;;;;;;;2.17;1.60;;;;;;;5.51;53.80;101383.03;4967595;28;20073;-80
2021/04/09 02:26:58;;;;;;;2.80;1.30;;;;;;;5.43;53.64;101392.00;4969813;29;20027;-81
2021/04/09 02:29:33;;;;;;;3.65;3.28;;;;;;;5.50;54.34;101388.88;4969559;29;20031;-80
2021/04/09 02:32:00;;;;;;;9.50;7.93;;;;;;;5.54;55.01;101378.88;4969426;28;20410;-80
2021/04/09 02:34:26;;;;;;;8.80;6.18;;;;;;;5.43;54.38;101366.31;4985075;28;20027;-81
2021/04/09 02:37:08;;;;;;;8.20;6.82;;;;;;;5.56;55.25;101406.97;4972009;28;20091;-81
2021/04/09 02:39:38;;;;;;;6.95;4.95;;;;;;;5.58;55.22;101407.50;4970000;28;20082;-81
2021/04/09 02:42:07;;;;;;;5.40;4.63;;;;;;;5.56;55.12;101387.66;4969493;29;20471;-80
2021/04/09 02:44:34;;;;;;;4.22;3.40;;;;;;;5.75;54.28;101396.75;4968320;29;20074;-80
2021/04/09 02:47:41;;;;;;;3.30;3.00;;;;;;;5.76;54.30;101408.63;4972109;29;20012;-81
2021/04/09 02:50:19;;;;;;;5.20;3.05;;;;;;;5.81;53.70;101410.47;4977500;28;20035;-80
2021/04/09 02:56:40;;;;;;;2.90;2.67;;;;;;;5.58;53.02;101404.72;4969658;29;20078;-81
2021/04/09 02:59:12;;;;;;;4.57;4.10;;;;;;;5.60;53.06;101397.00;4970159;29;20031;-81
2021/04/09 03:01:50;;;;;;;4.95;4.10;;;;;;;5.72;52.17;101400.09;4968026;29;20031;-80
2021/04/09 03:04:17;;;;;;;5.18;4.68;;;;;;;5.54;53.11;101395.44;4971334;28;20050;-81
2021/04/09 03:06:44;;;;;;;13.00;5.85;;;;;;;5.28;53.61;101380.38;4985476;28;20039;-81
2021/04/09 03:09:30;;;;;;;22.05;14.65;;;;;;;5.42;53.14;101392.28;4970528;29;20028;-80
2021/04/09 03:11:58;;;;;;;18.73;10.82;;;;;;;5.55;52.17;101399.81;4969164;28;20059;-80
2021/04/09 03:14:24;;;;;;;9.82;5.38;;;;;;;5.45;52.50;101394.47;4967502;29;20031;-81
2021/04/09 03:17:18;;;;;;;4.07;3.67;;;;;;;5.51;52.19;101401.53;4982847;28;20070;-80
2021/04/09 03:19:44;;;;;;;5.82;4.95;;;;;;;5.45;52.46;101391.69;4970473;29;20051;-82
2021/04/09 03:22:11;;;;;;;7.07;5.38;;;;;;;5.45;52.80;101397.22;4970059;28;20478;-80
2021/04/09 03:24:53;;;;;;;4.30;3.17;;;;;;;5.42;51.58;101397.81;4973598;28;20089;-81
2021/04/09 03:27:19;;;;;;;3.75;2.55;;;;;;;5.40;52.31;101408.34;4987427;28;20031;-81
2021/04/09 03:29:44;;;;;;;2.75;2.55;;;;;;;5.30;52.60;101408.47;4989020;28;20041;-81
2021/04/09 03:32:44;;;;;;;3.63;3.28;;;;;;;5.25;53.21;101401.91;4971907;28;20022;-81
2021/04/09 03:35:11;;;;;;;4.30;3.28;;;;;;;5.35;52.03;101402.88;4974875;28;20046;-81
2021/04/09 03:37:36;;;;;;;3.88;2.90;;;;;;;5.38;51.84;101394.84;4975835;28;20093;-80
2021/04/09 03:40:14;;;;;;;4.50;3.20;;;;;;;5.42;51.97;101417.13;4976066;28;20042;-80
2021/04/09 03:42:39;;;;;;;9.25;6.45;;;;;;;5.19;52.67;101411.38;4977305;28;20038;-81
2021/04/09 03:45:09;;;;;;;23.92;17.67;;;;;;;5.20;51.83;101418.53;4969492;28;20094;-81
2021/04/09 03:47:34;;;;;;;21.10;15.48;;;;;;;5.09;52.57;101400.47;4968095;28;20035;-82
2021/04/09 03:50:00;;;;;;;11.43;8.23;;;;;;;5.06;52.85;101409.34;4968052;28;20070;-80
2021/04/09 03:52:38;;;;;;;21.17;14.52;;;;;;;5.02;52.80;101411.06;4970427;28;20027;-81
2021/04/09 03:55:14;;;;;;;18.20;14.52;;;;;;;5.02;52.02;101410.25;4994179;28;20030;-81
2021/04/09 03:58:16;;;;;;;10.50;7.55;;;;;;;5.07;50.61;101408.25;4992094;28;20027;-81
2021/04/09 04:00:41;;;;;;;3.10;2.80;;;;;;;5.09;50.30;101397.72;4976164;28;20038;-81
2021/04/09 04:03:10;;;;;;;3.70;2.40;;;;;;;5.19;50.37;101414.13;4991291;28;20034;-80
2021/04/09 04:05:36;;;;;;;7.30;2.47;;;;;;;5.06;51.07;101409.34;4976431;28;20031;-80
2021/04/09 04:08:02;;;;;;;9.55;2.92;;;;;;;5.04;51.58;101411.56;4977291;28;20086;-80
2021/04/09 04:10:53;;;;;;;6.03;2.72;;;;;;;5.11;50.96;101420.28;4992576;28;20038;-81
2021/04/09 04:13:21;;;;;;;2.70;2.20;;;;;;;5.15;51.49;101426.06;4975845;28;20038;-81
2021/04/09 04:15:46;;;;;;;4.03;1.80;;;;;;;5.13;50.73;101415.31;4991485;28;20035;-80
2021/04/09 04:21:51;;;;;;;1.70;1.55;;;;;;;5.34;50.50;101424.16;4991256;28;20045;-80
2021/04/09 04:24:19;;;;;;;1.85;1.48;;;;;;;5.27;50.48;101418.16;4990287;28;20050;-81
2021/04/09 04:26:44;;;;;;;2.10;1.33;;;;;;;5.25;50.90;101432.25;4973669;28;20034;-81
2021/04/09 04:29:46;;;;;;;3.10;1.92;;;;;;;5.48;50.41;101440.78;4973920;28;20041;-80
2021/04/09 04:32:14;;;;;;;2.13;1.95;;;;;;;5.38;50.58;101436.25;4991448;28;20038;-80
2021/04/09 04:34:40;;;;;;;2.28;2.08;;;;;;;5.32;52.06;101444.88;4991966;28;20038;-80
2021/04/09 04:37:44;;;;;;;2.38;2.03;;;;;;;5.18;52.55;101437.31;4991979;28;20035;-81
2021/04/09 04:40:10;;;;;;;4.88;2.30;;;;;;;5.30;51.36;101444.34;4975226;28;20041;-81
2021/04/09 04:42:35;;;;;;;2.15;1.90;;;;;;;5.39;51.54;101443.41;4990490;28;20023;-81
2021/04/09 04:45:25;;;;;;;2.47;2.22;;;;;;;5.35;52.05;101441.53;4977032;28;20038;-81
2021/04/09 04:47:51;;;;;;;2.45;2.25;;;;;;;5.17;52.34;101435.69;4974601;28;20026;-81
2021/04/09 04:50:17;;;;;;;4.85;2.05;;;;;;;5.13;52.79;101444.84;4975117;28;20026;-80
2021/04/09 05:03:24;;;;;;;2.40;2.20;;;;;;;8.20;44.70;101452.56;4992424;28;20050;-80
2021/04/09 05:05:50;;;;;;;3.72;3.22;;;;;;;8.87;42.41;101460.81;4976635;28;20015;-82
2021/04/09 05:08:15;;;;;;;8.50;6.07;;;;;;;9.38;41.74;101455.75;4977019;28;20034;-81
2021/04/09 05:10:51;;;;;;;9.52;7.97;;;;;;;9.93;40.05;101464.28;4975420;28;20035;-81
2021/04/09 05:13:20;;;;;;;17.58;15.70;;;;;;;10.49;38.53;101470.78;4993326;28;20031;-81
2021/04/09 05:15:45;;;;;;;13.55;12.18;;;;;;;11.07;38.20;101451.72;4980035;28;20058;-81
2021/04/09 05:18:13;;;;;;;16.23;14.45;;;;;;;11.59;37.11;101456.19;4982858;28;20042;-81
2021/04/09 05:20:38;;;;;;;14.45;12.13;;;;;;;12.21;35.60;101449.78;4975129;28;20130;-81
2021/04/09 05:23:04;;;;;;;7.70;6.25;;;;;;;12.87;34.40;101441.31;4969452;28;20062;-81
2021/04/09 05:25:29;;;;;;;6.28;3.42;;;;;;;13.56;33.19;101453.53;4966708;29;20034;-81
2021/04/09 05:28:00;;;;;;;14.05;9.80;;;;;;;14.04;32.13;101448.97;4967772;29;20058;-81
2021/04/09 05:30:25;;;;;;;48.30;31.05;;;;;;;14.49;31.56;101459.03;4970247;29;20402;-81
2021/04/09 05:32:52;;;;;;;94.60;59.38;;;;;;;15.10;30.46;101453.03;4973264;29;20035;-82
2021/04/09 05:35:20;;;;;;;97.18;69.43;;;;;;;15.44;29.75;101469.06;4972202;29;20162;-81
2021/04/09 05:37:45;;;;;;;49.58;32.47;;;;;;;15.74;29.56;101459.34;4966550;28;20035;-81
2021/04/09 05:40:25;;;;;;;50.17;34.97;;;;;;;16.24;28.65;101472.44;4966495;29;20027;-81
2021/04/09 05:43:03;;;;;;;32.22;25.02;;;;;;;16.54;27.54;101480.25;4966465;29;20499;-80
2021/04/09 05:46:24;;;;;;;29.83;20.08;;;;;;;16.91;26.94;101472.13;4967660;28;20039;-81
2021/04/09 05:48:49;;;;;;;12.82;9.98;;;;;;;17.05;27.18;101477.19;4966394;28;20039;-81
2021/04/09 05:51:15;;;;;;;7.57;5.88;;;;;;;17.24;26.11;101480.72;4966172;29;20065;-80
2021/04/09 05:54:26;;;;;;;5.97;4.60;;;;;;;17.43;25.89;101481.84;4965621;29;20059;-80
2021/04/09 05:56:52;;;;;;;6.35;4.25;;;;;;;17.65;25.92;101477.34;4964372;29;20047;-80
2021/04/09 05:59:17;;;;;;;14.63;3.67;;;;;;;18.09;25.50;101496.47;4962199;28;20039;-80
2021/04/09 06:01:45;;;;;;;5.72;3.40;;;;;;;18.23;25.05;101491.81;4960425;29;20054;-80
2021/04/09 06:04:10;;;;;;;2.75;2.40;;;;;;;18.51;24.20;101487.72;4957860;29;20425;-81
2021/04/09 06:06:52;;;;;;;3.95;2.97;;;;;;;18.39;24.24;101499.25;4955345;29;20114;-81
2021/04/09 06:09:18;;;;;;;3.90;2.03;;;;;;;17.83;24.37;101488.88;4955886;29;20082;-80
2021/04/09 06:11:44;;;;;;;2.47;1.83;;;;;;;17.97;24.70;101494.72;4955329;29;20493;-80
2021/04/09 06:14:41;;;;;;;2.53;2.05;;;;;;;18.35;24.02;101492.75;4955038;29;20032;-81
2021/04/09 06:17:09;;;;;;;3.75;1.80;;;;;;;18.85;23.07;101502.59;4957251;29;20038;-74
2021/04/09 06:19:34;;;;;;;2.17;1.98;;;;;;;18.81;23.60;101493.31;4956490;28;20033;-81
2021/04/09 06:25:37;;;;;;;2.63;1.95;;;;;;;19.42;23.33;101505.13;4975087;28;20062;-83
2021/04/09 06:28:05;;;;;;;2.42;2.20;;;;;;;18.93;23.11;101495.03;4957861;28;20043;-80
2021/04/09 06:30:34;;;;;;;3.58;2.00;;;;;;;18.84;23.37;101504.59;4963062;28;20027;-80
2021/04/09 06:33:00;;;;;;;3.28;2.20;;;;;;;17.82;23.56;101501.31;4982652;28;20031;-80
2021/04/09 06:35:28;;;;;;;3.80;3.55;;;;;;;17.94;24.08;101496.25;4965426;28;20058;-80
2021/04/09 06:38:03;;;;;;;3.83;2.58;;;;;;;17.72;24.52;101509.22;4965051;28;20030;-80
2021/04/09 06:40:29;;;;;;;3.53;2.60;;;;;;;17.44;25.10;101498.31;4966034;28;20035;-81
2021/04/09 06:42:56;;;;;;;4.15;2.60;;;;;;;18.05;24.81;101494.41;4969114;28;20410;-80
2021/04/09 06:45:32;;;;;;;4.47;2.92;;;;;;;18.57;23.12;101505.91;4970451;28;20378;-80
2021/04/09 06:47:59;;;;;;;3.10;2.80;;;;;;;18.83;23.56;101516.28;4970324;28;20082;-80
2021/04/09 06:50:25;;;;;;;3.80;3.10;;;;;;;19.18;23.03;101515.81;4969913;28;20042;-80
2021/04/09 06:56:17;;;;;;;3.88;3.33;;;;;;;19.31;24.35;101511.47;4974090;28;20035;-83
2021/04/09 06:58:47;;;;;;;5.47;4.30;;;;;;;18.21;26.55;101521.56;4977550;28;20026;-79
2021/04/09 07:01:16;;;;;;;8.93;4.78;;;;;;;17.74;28.03;101509.69;4980506;28;20030;-79
2021/04/09 07:03:44;;;;;;;14.15;6.45;;;;;;;17.62;28.70;101512.66;4979471;28;20034;-79
2021/04/09 07:06:10;;;;;;;8.50;5.28;;;;;;;17.32;28.39;101518.25;4962712;28;20031;-80
2021/04/09 07:08:41;;;;;;;7.93;5.30;;;;;;;17.30;29.05;101514.97;4978239;28;20041;-80
2021/04/09 07:11:07;;;;;;;9.70;5.10;;;;;;;17.51;28.49;101529.38;4983012;28;20030;-80
2021/04/09 07:14:05;;;;;;;7.80;4.90;;;;;;;17.98;27.47;101530.91;4984520;28;20081;-79
2021/04/09 07:16:32;;;;;;;8.90;4.97;;;;;;;17.64;27.86;101527.19;4968608;28;20457;-80
2021/04/09 07:18:59;;;;;;;8.52;4.95;;;;;;;17.23;28.76;101528.94;4968676;28;20031;-80
2021/04/09 07:21:40;;;;;;;6.15;4.05;;;;;;;16.75;28.15;101523.66;4969529;28;20038;-80
2021/04/09 07:24:12;;;;;;;7.43;3.60;;;;;;;16.67;28.54;101535.94;4966355;29;20449;-80
2021/04/09 07:26:38;;;;;;;8.50;3.50;;;;;;;16.43;28.31;101537.03;4966501;28;20490;-80
2021/04/09 07:29:04;;;;;;;3.90;3.45;;;;;;;16.65;27.92;101537.47;4967267;28;20082;-79
2021/04/09 07:31:33;;;;;;;6.07;3.20;;;;;;;17.10;27.63;101542.38;4970807;29;20450;-80
2021/04/09 07:34:01;;;;;;;9.57;4.00;;;;;;;17.21;26.46;101537.75;4972175;29;20050;-77
2021/04/09 07:36:27;;;;;;;11.85;3.38;;;;;;;17.97;25.72;101545.38;4965317;29;20031;-81
2021/04/09 07:38:53;;;;;;;6.97;3.47;;;;;;;17.76;25.40;101518.53;4960905;28;20526;-81
2021/04/09 07:41:18;;;;;;;5.50;2.80;;;;;;;18.48;23.68;101545.69;4957654;29;20035;-82
2021/04/09 07:43:45;;;;;;;4.35;3.42;;;;;;;19.15;23.29;101547.63;4959088;28;20024;-83
2021/04/09 07:46:23;;;;;;;3.08;2.78;;;;;;;19.51;22.04;101550.75;4958378;28;20118;-84
2021/04/09 07:49:04;;;;;;;2.50;2.30;;;;;;;18.50;21.34;101522.75;4960658;29;20054;-80
2021/04/09 07:51:30;;;;;;;3.63;2.08;;;;;;;19.49;21.11;101555.97;4976857;29;20102;-81
2021/04/09 07:54:08;;;;;;;2.70;2.20;;;;;;;19.95;20.85;101550.69;4958728;29;20075;-82
2021/04/09 07:56:49;;;;;;;2.38;2.15;;;;;;;20.79;19.70;101556.34;4957940;29;20031;-82
2021/04/09 07:59:35;;;;;;;2.72;2.00;;;;;;;20.26;19.55;101560.53;4958728;28;20038;-82
2021/04/09 08:02:00;;;;;;;4.97;2.00;;;;;;;19.28;21.45;101557.44;4941485;29;20549;-83
2021/04/09 08:04:35;;;;;;;3.05;2.42;;;;;;;20.02;20.63;101549.91;4958125;28;20028;-83
2021/04/09 08:07:01;;;;;;;4.97;3.05;;;;;;;21.09;19.73;101556.81;4958295;28;20123;-83
2021/04/09 08:09:26;;;;;;;3.10;2.47;;;;;;;20.46;19.45;101554.59;4956961;29;20123;-85
2021/04/09 08:11:52;;;;;;;2.83;2.53;;;;;;;21.22;18.83;101548.72;4956730;29;20062;-84
2021/04/09 08:14:24;;;;;;;2.58;2.30;;;;;;;20.84;19.12;101550.28;4957362;29;20042;-82
2021/04/09 08:16:51;;;;;;;3.70;2.75;;;;;;;20.49;19.00;101550.97;4956638;29;20126;-81
2021/04/09 08:19:24;;;;;;;4.13;2.53;;;;;;;20.65;19.72;101554.28;4957245;29;20039;-84
2021/04/09 08:21:55;;;;;;;3.65;2.50;;;;;;;20.77;19.44;101550.25;4957190;28;20019;-85
2021/04/09 08:24:24;;;;;;;3.47;2.35;;;;;;;20.87;19.59;101553.13;4956737;29;20074;-84
2021/04/09 08:26:50;;;;;;;4.20;2.80;;;;;;;19.72;19.80;101542.47;4956341;29;20081;-81
2021/04/09 08:29:18;;;;;;;3.35;2.60;;;;;;;19.31;20.50;101553.81;4957070;29;20031;-84
2021/04/09 08:31:44;;;;;;;3.78;2.45;;;;;;;19.38;20.15;101534.09;4956777;29;20126;-83
2021/04/09 08:34:12;;;;;;;2.90;2.25;;;;;;;19.94;19.52;101548.25;4956760;29;20098;-84
2021/04/09 08:36:44;;;;;;;2.22;2.00;;;;;;;20.18;18.45;101541.91;4956483;29;20030;-83
2021/04/09 08:39:13;;;;;;;2.00;1.90;;;;;;;20.47;17.49;101553.41;4957654;28;20389;-84
2021/04/09 08:41:41;;;;;;;3.80;2.67;;;;;;;19.55;18.89;101549.59;4957657;28;20097;-85
2021/04/09 08:44:07;;;;;;;3.47;2.17;;;;;;;20.50;17.92;101541.28;4957635;28;20027;-84
2021/04/09 08:46:34;;;;;;;3.03;2.50;;;;;;;20.85;18.33;101555.53;4956326;29;20059;-84
2021/04/09 08:49:00;;;;;;;2.50;2.30;;;;;;;20.62;19.10;101557.91;4956085;29;20130;-84
2021/04/09 08:51:29;;;;;;;6.95;2.95;;;;;;;20.57;18.64;101555.47;4956286;29;20023;-82
2021/04/09 08:53:54;;;;;;;7.28;2.63;;;;;;;20.99;18.73;101553.97;4957960;28;20031;-81
2021/04/09 08:56:36;;;;;;;4.93;2.85;;;;;;;21.17;17.78;101549.13;4956127;29;20031;-84
2021/04/09 08:59:03;;;;;;;2.60;2.40;;;;;;;21.34;18.01;101551.19;4956544;29;20067;-84
2021/04/09 09:01:29;;;;;;;4.13;2.80;;;;;;;21.38;18.57;101557.66;4955927;29;20037;-85
2021/04/09 09:04:20;;;;;;;4.05;3.20;;;;;;;21.30;18.13;101544.72;4956424;29;20039;-84
2021/04/09 09:06:48;;;;;;;3.45;2.67;;;;;;;20.71;18.20;101547.00;4955863;28;20463;-85
2021/04/09 09:09:43;;;;;;;5.78;3.08;;;;;;;21.29;18.02;101553.59;4956160;29;20046;-84
2021/04/09 09:12:14;;;;;;;5.15;3.00;;;;;;;21.53;17.59;101552.81;4952516;28;20482;-84
2021/04/09 09:14:42;;;;;;;3.47;3.05;;;;;;;20.94;17.54;101549.50;4956791;28;20027;-85
2021/04/09 09:17:20;;;;;;;8.18;2.95;;;;;;;21.48;17.65;101550.38;4955780;29;20035;-85
2021/04/09 09:19:46;;;;;;;4.82;2.72;;;;;;;21.95;17.88;101537.78;4957783;28;20031;-82
2021/04/09 09:22:17;;;;;;;3.03;2.33;;;;;;;21.27;17.36;101548.34;4955656;29;20038;-85
2021/04/09 09:25:08;;;;;;;4.38;2.75;;;;;;;20.98;17.28;101544.66;4966103;28;20662;-84
2021/04/09 09:27:52;;;;;;;2.22;1.70;;;;;;;22.42;16.37;101541.28;4958440;28;20038;-83
2021/04/09 09:30:30;;;;;;;4.13;2.05;;;;;;;22.88;15.75;101533.78;4976619;28;20030;-84
2021/04/09 09:33:18;;;;;;;2.88;1.90;;;;;;;23.24;16.24;101545.69;4975865;28;20063;-85
2021/04/09 09:36:10;;;;;;;2.70;2.42;;;;;;;22.13;15.76;101537.75;4958882;28;20060;-84
2021/04/09 09:38:48;;;;;;;5.57;1.75;;;;;;;21.92;16.30;101534.94;4956684;28;20093;-82
2021/04/09 09:41:33;;;;;;;2.13;1.77;;;;;;;21.10;17.54;101532.16;4977704;28;20554;-84
2021/04/09 09:44:00;;;;;;;4.70;2.10;;;;;;;19.47;17.98;101527.31;4985589;28;20121;-81
2021/04/09 09:46:51;;;;;;;3.22;2.00;;;;;;;19.53;18.43;101522.94;4969819;28;20121;-81
2021/04/09 09:49:16;;;;;;;2.83;2.28;;;;;;;19.68;19.50;101506.94;4985302;28;20027;-81
2021/04/09 09:51:42;;;;;;;2.35;2.10;;;;;;;20.51;17.82;101515.47;4969311;28;20042;-81
2021/04/09 09:54:08;;;;;;;3.58;2.97;;;;;;;20.67;19.77;101526.41;4976129;28;20030;-81
2021/04/09 09:56:34;;;;;;;4.20;2.63;;;;;;;20.59;18.97;101521.94;4991625;28;20026;-81
2021/04/09 09:59:02;;;;;;;4.43;3.15;;;;;;;21.15;19.09;101507.09;4972133;28;20037;-81
2021/04/09 10:01:31;;;;;;;12.25;3.60;;;;;;;21.75;18.06;101508.28;4979602;28;20031;-83
2021/04/09 10:03:59;;;;;;;3.10;2.78;;;;;;;22.00;18.00;101501.72;4958830;28;20454;-82
2021/04/09 10:06:28;;;;;;;5.75;3.55;;;;;;;22.48;16.75;101488.59;4975056;28;20031;-85
2021/04/09 10:08:53;;;;;;;4.85;2.10;;;;;;;22.51;14.98;101508.84;4958005;28;20160;-85
2021/04/09 10:11:24;;;;;;;2.42;1.42;;;;;;;22.27;15.13;101510.59;4958222;28;20051;-84
2021/04/09 10:13:51;;;;;;;12.43;2.30;;;;;;;21.19;15.99;101502.22;4957631;28;20474;-84
2021/04/09 10:16:21;;;;;;;3.15;1.60;;;;;;;20.14;17.44;101510.84;4975568;28;20027;-82
2021/04/09 10:18:52;;;;;;;1.33;1.30;;;;;;;20.21;17.95;101504.41;4982703;28;20455;-81
2021/04/09 10:21:23;;;;;;;2.33;1.70;;;;;;;20.70;17.57;101505.81;4960867;28;20482;-82
2021/04/09 10:24:06;;;;;;;1.40;1.30;;;;;;;20.41;17.12;101500.06;4979454;28;20121;-81
2021/04/09 10:26:32;;;;;;;1.80;1.70;;;;;;;21.01;16.64;101480.81;4959465;28;20034;-81
2021/04/09 10:29:00;;;;;;;1.75;1.42;;;;;;;21.26;15.90;101492.94;4955360;28;20055;-81
2021/04/09 10:31:32;;;;;;;1.45;1.35;;;;;;;21.15;15.61;101490.13;4975739;28;20031;-84
2021/04/09 10:33:59;;;;;;;1.70;1.60;;;;;;;21.01;16.63;101494.94;4975042;28;20034;-83
2021/04/09 10:36:30;;;;;;;2.33;2.00;;;;;;;20.21;18.03;101501.59;4957857;28;20035;-83
2021/04/09 10:39:11;;;;;;;2.15;1.83;;;;;;;20.71;17.58;101490.44;4973991;28;20069;-84
2021/04/09 10:41:39;;;;;;;1.98;1.80;;;;;;;20.74;17.58;101492.50;4975284;28;20058;-85
2021/04/09 10:44:07;;;;;;;2.15;1.90;;;;;;;19.83;18.20;101498.16;4973603;28;20031;-82
2021/04/09 10:46:39;;;;;;;2.08;1.88;;;;;;;20.42;17.34;101490.34;4979184;28;20069;-81
2021/04/09 10:49:07;;;;;;;2.42;2.22;;;;;;;20.90;17.17;101490.09;4978915;28;20389;-81
2021/04/09 10:51:39;;;;;;;1.80;1.70;;;;;;;20.12;18.11;101498.31;4989910;28;20534;-81
2021/04/09 10:54:14;;;;;;;1.90;1.70;;;;;;;20.62;16.53;101485.19;4981833;28;20046;-80
2021/04/09 10:56:42;;;;;;;2.10;1.55;;;;;;;20.21;17.55;101481.81;4962559;28;20027;-83
2021/04/09 10:59:10;;;;;;;2.83;1.48;;;;;;;20.77;17.45;101454.09;4958502;28;20035;-82
2021/04/09 11:01:39;;;;;;;1.63;1.52;;;;;;;21.15;16.99;101487.28;4958618;28;20057;-82
2021/04/09 11:04:05;;;;;;;3.10;2.30;;;;;;;20.91;17.56;101488.06;4960959;28;20125;-80
2021/04/09 11:06:32;;;;;;;1.50;1.40;;;;;;;20.13;18.61;101494.25;4989306;28;20027;-80
2021/04/09 11:09:02;;;;;;;2.00;1.50;;;;;;;19.24;18.38;101483.22;4975966;28;20039;-81
2021/04/09 11:11:34;;;;;;;2.25;1.58;;;;;;;20.15;18.57;101492.69;4976853;28;20023;-81
2021/04/09 11:14:02;;;;;;;1.70;1.30;;;;;;;20.11;18.24;101479.75;4993677;28;20053;-81
2021/04/09 11:16:28;;;;;;;2.88;1.50;;;;;;;20.17;18.97;101492.28;4991136;28;20031;-82
2021/04/09 11:18:56;;;;;;;1.83;1.70;;;;;;;20.02;19.30;101487.75;4991515;28;20086;-82
2021/04/09 11:21:43;;;;;;;1.92;1.83;;;;;;;19.91;20.04;101492.53;4993148;28;20437;-81
2021/04/09 11:24:14;;;;;;;6.65;2.00;;;;;;;19.51;20.79;101483.81;4976539;28;20057;-81
2021/04/09 11:26:40;;;;;;;2.03;1.70;;;;;;;20.07;19.60;101482.53;4976805;28;20038;-81
2021/04/09 11:29:06;;;;;;;2.20;1.40;;;;;;;19.80;20.11;101475.53;4991061;28;20398;-81
2021/04/09 11:31:35;;;;;;;2.10;1.70;;;;;;;19.83;21.21;101488.88;4977867;28;20042;-81
2021/04/09 11:34:10;;;;;;;1.75;1.65;;;;;;;19.72;21.69;101486.00;4978177;28;20031;-81
2021/04/09 11:36:48;;;;;;;1.70;1.60;;;;;;;19.84;20.56;101488.47;4984023;28;20184;-81
2021/04/09 11:39:19;;;;;;;1.50;1.40;;;;;;;19.07;21.80;101490.34;4993152;28;20026;-81
2021/04/09 11:42:06;;;;;;;4.75;1.70;;;;;;;19.57;21.09;101481.44;4990717;28;20042;-82
2021/04/09 11:44:37;;;;;;;2.70;1.50;;;;;;;18.88;21.37;101424.88;4990604;28;20026;-82
2021/04/09 11:47:23;;;;;;;1.40;1.30;;;;;;;19.60;18.89;101484.31;4990021;28;20031;-81
2021/04/09 11:50:09;;;;;;;1.50;1.40;;;;;;;19.27;21.47;101454.19;4974034;28;20035;-82
2021/04/09 11:52:53;;;;;;;1.50;1.17;;;;;;;19.63;20.73;101471.41;4991412;28;20181;-82
2021/04/09 11:55:21;;;;;;;1.85;1.30;;;;;;;18.71;22.71;101472.25;4990447;28;20035;-81
2021/04/09 11:57:47;;;;;;;1.55;1.10;;;;;;;19.19;22.59;101471.47;4991943;28;20485;-81
2021/04/09 12:00:22;;;;;;;1.38;1.23;;;;;;;18.62;21.89;101456.81;4976996;28;20038;-82
2021/04/09 12:02:56;;;;;;;0.90;0.90;;;;;;;18.45;20.96;101458.25;4993151;28;20053;-82
2021/04/09 12:05:24;;;;;;;2.17;1.40;;;;;;;18.16;22.60;101446.66;4991327;28;20038;-81
2021/04/09 12:07:50;;;;;;;1.63;1.50;;;;;;;17.26;23.60;101449.44;4976684;28;20097;-82
2021/04/09 12:10:22;;;;;;;1.85;1.27;;;;;;;17.58;23.67;101458.34;4977241;28;20031;-81
2021/04/09 12:12:52;;;;;;;1.17;1.07;;;;;;;17.64;25.02;101459.66;4995089;28;20031;-82
2021/04/09 12:15:21;;;;;;;1.30;1.10;;;;;;;17.81;25.58;101402.00;4993542;28;20030;-82
2021/04/09 12:17:46;;;;;;;2.67;1.42;;;;;;;18.12;24.92;101453.47;4976244;28;20609;-81
2021/04/09 12:20:16;;;;;;;1.25;1.15;;;;;;;18.26;24.94;101445.16;4975882;28;20030;-81
2021/04/09 12:22:42;;;;;;;1.88;1.48;;;;;;;18.54;22.52;101445.50;4991435;28;20046;-83
2021/04/09 12:25:10;;;;;;;1.63;1.33;;;;;;;18.56;22.61;101440.25;4993142;28;20062;-82
2021/04/09 12:27:39;;;;;;;2.75;1.30;;;;;;;18.77;23.03;101433.25;4976774;28;20031;-82
2021/04/09 12:30:07;;;;;;;2.88;1.25;;;;;;;18.87;22.78;101445.84;4992998;28;20027;-82
2021/04/09 12:32:35;;;;;;;0.98;0.90;;;;;;;18.87;23.30;101434.56;4977243;28;20030;-82
2021/04/09 12:35:01;;;;;;;1.05;1.05;;;;;;;18.97;23.46;101434.63;4993694;28;20070;-82
2021/04/09 12:37:27;;;;;;;2.25;1.33;;;;;;;18.56;23.31;101433.81;4977152;28;20061;-82
2021/04/09 12:39:53;;;;;;;1.20;1.10;;;;;;;18.64;23.06;101421.41;4992570;28;20074;-82
2021/04/09 12:42:24;;;;;;;1.00;1.00;;;;;;;18.86;23.67;101430.91;4993394;28;20027;-81
2021/04/09 12:44:55;;;;;;;2.65;1.15;;;;;;;18.25;24.87;101421.00;4990802;28;20023;-81
2021/04/09 12:47:32;;;;;;;1.30;1.20;;;;;;;17.95;25.55;101423.88;4990601;28;20060;-82